Time;durP1;ratioP1;P1;durP2;ratioP2;P2;SDS_P1;SDS_P2;PMS_P1;PMS_P2;Temp;Humidity;BMP_temperature;BMP_pressure;BME280_temperature;BME280_humidity;BME280_pressure;Samples;Min_cycle;Max_cycle;Signal;HPM_P1;HPM_P2
2024/04/21 00:00:09;;;;;;;7.67;3.70;;;4.50;98.00;;;;;;5379873;26;20606;-85
2024/04/21 00:02:40;;;;;;;5.10;3.17;;;4.40;98.00;;;;;;5380388;26;21030;-85
2024/04/21 00:05:07;;;;;;;5.37;3.17;;;4.40;98.00;;;;;;5378776;26;20466;-84
2024/04/21 00:07:35;;;;;;;5.27;3.33;;;4.40;98.00;;;;;;5379496;26;20455;-85
2024/04/21 00:10:01;;;;;;;5.43;3.03;;;4.50;98.00;;;;;;5379592;26;20538;-85
2024/04/21 00:12:30;;;;;;;5.00;3.00;;;4.70;98.00;;;;;;5379032;26;20470;-85
2024/04/21 00:14:56;;;;;;;7.30;3.67;;;4.80;98.00;;;;;;5378420;26;20495;-85
2024/04/21 00:17:25;;;;;;;6.97;3.80;;;4.80;98.00;;;;;;5379334;26;21117;-85
2024/04/21 00:19:55;;;;;;;7.40;4.23;;;4.90;98.00;;;;;;5379105;26;20501;-85
2024/04/21 00:22:29;;;;;;;10.90;3.93;;;4.80;98.00;;;;;;5378733;26;20455;-85
2024/04/21 00:24:55;;;;;;;5.97;3.47;;;4.80;98.00;;;;;;5378052;26;20564;-85
2024/04/21 00:27:26;;;;;;;5.93;3.50;;;5.00;98.00;;;;;;5378871;26;20468;-84
2024/04/21 00:29:53;;;;;;;7.07;3.50;;;5.10;98.00;;;;;;5348180;26;20465;-84
2024/04/21 00:32:22;;;;;;;7.43;4.03;;;5.10;98.00;;;;;;5379113;26;20813;-85
2024/04/21 00:34:51;;;;;;;6.13;3.70;;;5.40;98.00;;;;;;5377849;26;20555;-85
2024/04/21 00:37:28;;;;;;;6.23;3.70;;;5.50;98.00;;;;;;5378729;26;20783;-85
2024/04/21 00:39:54;;;;;;;8.33;4.00;;;5.50;98.00;;;;;;5379217;26;20527;-85
2024/04/21 00:42:25;;;;;;;7.30;4.20;;;5.40;98.00;;;;;;5379543;26;20467;-85
2024/04/21 00:47:42;;;;;;;8.17;4.17;;;5.40;98.00;;;;;;5376581;26;20464;-85
2024/04/21 00:50:10;;;;;;;7.30;3.80;;;5.40;98.00;;;;;;5373701;26;20524;-85
2024/04/21 00:52:42;;;;;;;5.70;3.43;;;5.40;98.00;;;;;;5378298;26;20480;-85
2024/04/21 00:55:10;;;;;;;7.97;3.70;;;5.50;98.00;;;;;;5377561;26;20856;-85
2024/04/21 00:57:41;;;;;;;5.73;3.20;;;5.60;98.00;;;;;;5348215;26;20501;-85
2024/04/21 01:00:10;;;;;;;6.20;3.47;;;5.60;98.00;;;;;;5379011;26;20517;-85
2024/04/21 01:02:40;;;;;;;5.20;3.00;;;5.70;98.00;;;;;;5378688;26;20469;-85
2024/04/21 01:05:12;;;;;;;5.77;3.50;;;5.70;98.00;;;;;;5377927;26;21108;-85
2024/04/21 01:07:44;;;;;;;6.00;3.33;;;5.60;98.00;;;;;;5378831;26;20472;-85
2024/04/21 01:10:11;;;;;;;4.83;3.20;;;5.70;98.00;;;;;;5378983;26;20658;-85
2024/04/21 01:12:42;;;;;;;6.47;3.60;;;5.90;98.00;;;;;;5379495;26;20539;-85
2024/04/21 01:15:09;;;;;;;7.47;3.40;;;5.70;98.00;;;;;;5378642;26;20462;-84
2024/04/21 01:17:38;;;;;;;5.70;3.17;;;5.70;98.00;;;;;;5378751;26;20464;-85
2024/04/21 01:20:05;;;;;;;4.67;2.80;;;5.70;98.00;;;;;;5378516;26;20472;-85
2024/04/21 01:22:33;;;;;;;5.13;3.00;;;5.60;98.00;;;;;;5376018;26;20576;-85
2024/04/21 01:25:02;;;;;;;3.97;2.80;;;5.60;98.00;;;;;;5378327;26;20859;-84
2024/04/21 01:27:31;;;;;;;5.73;3.50;;;5.70;98.00;;;;;;5378560;26;20460;-85
2024/04/21 01:29:57;;;;;;;4.90;3.37;;;5.50;98.00;;;;;;5378757;26;20517;-85
2024/04/21 01:32:26;;;;;;;6.73;2.80;;;5.60;98.00;;;;;;5378755;26;20460;-85
2024/04/21 01:34:52;;;;;;;3.67;2.80;;;5.70;98.00;;;;;;5377465;26;20505;-85
2024/04/21 01:37:21;;;;;;;4.77;3.00;;;5.70;98.00;;;;;;5378198;26;20456;-85
2024/04/21 01:39:47;;;;;;;4.33;2.90;;;5.70;98.00;;;;;;5378314;26;20461;-85
2024/04/21 01:42:18;;;;;;;4.37;2.57;;;5.70;98.00;;;;;;5378407;26;20466;-85
2024/04/21 01:44:45;;;;;;;4.67;2.90;;;5.80;98.00;;;;;;5377494;26;20472;-84
2024/04/21 01:47:14;;;;;;;7.27;2.50;;;5.90;98.00;;;;;;5378547;26;20521;-85
2024/04/21 01:49:40;;;;;;;4.50;2.73;;;5.90;98.00;;;;;;5378136;26;20815;-85
2024/04/21 01:52:09;;;;;;;3.50;2.60;;;5.80;98.00;;;;;;5378501;26;20519;-85
2024/04/21 01:54:36;;;;;;;4.50;2.70;;;5.80;98.00;;;;;;5377355;26;20511;-86
2024/04/21 01:57:05;;;;;;;4.30;2.50;;;5.80;98.00;;;;;;5378003;26;20463;-84
2024/04/21 01:59:36;;;;;;;5.00;2.60;;;5.80;98.00;;;;;;5377939;26;20503;-84
2024/04/21 02:02:05;;;;;;;4.30;2.60;;;5.70;98.00;;;;;;5377884;26;20478;-86
2024/04/21 02:04:31;;;;;;;3.70;2.20;;;5.90;98.00;;;;;;5377022;26;20472;-85
2024/04/21 02:07:00;;;;;;;3.20;2.40;;;6.00;98.00;;;;;;5378266;26;20904;-85
2024/04/21 02:09:26;;;;;;;3.67;2.50;;;6.10;98.00;;;;;;5377842;26;20501;-85
2024/04/21 02:11:55;;;;;;;4.00;2.70;;;6.10;98.00;;;;;;5377774;26;20537;-85
2024/04/21 02:14:21;;;;;;;3.30;2.20;;;6.10;98.00;;;;;;5378688;26;20448;-85
2024/04/21 02:16:52;;;;;;;4.30;2.60;;;6.20;98.00;;;;;;5380969;26;20589;-85
2024/04/21 02:19:18;;;;;;;16.23;2.70;;;6.30;98.00;;;;;;5381365;26;20572;-85
2024/04/21 02:21:47;;;;;;;2.93;2.20;;;6.20;98.00;;;;;;5381200;26;20464;-85
2024/04/21 02:24:13;;;;;;;3.10;2.20;;;6.20;98.00;;;;;;5380256;26;20453;-85
2024/04/21 02:26:42;;;;;;;3.80;2.33;;;6.30;98.00;;;;;;5380818;26;20461;-85
2024/04/21 02:29:08;;;;;;;2.40;2.10;;;6.30;98.00;;;;;;5380633;26;20455;-85
2024/04/21 02:32:00;;;;;;;2.13;1.90;;;6.40;98.00;;;;;;5380654;26;20472;-86
2024/04/21 02:34:26;;;;;;;3.17;2.17;;;6.30;98.00;;;;;;5379926;26;20454;-85
2024/04/21 02:36:54;;;;;;;2.47;1.97;;;6.20;98.00;;;;;;5381248;26;20505;-85
2024/04/21 02:39:21;;;;;;;4.10;1.90;;;6.20;98.00;;;;;;5380665;26;20461;-86
2024/04/21 02:41:50;;;;;;;3.13;1.87;;;6.20;98.00;;;;;;5380900;26;20560;-85
2024/04/21 02:44:36;;;;;;;4.27;2.10;;;6.20;98.00;;;;;;5379891;26;21043;-85
2024/04/21 02:47:29;;;;;;;4.50;2.00;;;6.10;98.00;;;;;;5380434;26;20452;-85
2024/04/21 02:49:55;;;;;;;3.27;2.20;;;5.90;98.00;;;;;;5380503;26;20516;-85
2024/04/21 02:52:23;;;;;;;2.80;2.13;;;5.80;98.00;;;;;;5380990;26;20519;-85
2024/04/21 02:54:49;;;;;;;4.33;2.10;;;5.70;98.00;;;;;;5379993;26;20456;-85
2024/04/21 02:57:18;;;;;;;2.90;2.10;;;5.70;98.00;;;;;;5380326;26;20544;-84
2024/04/21 02:59:44;;;;;;;3.70;2.10;;;5.60;98.00;;;;;;5380275;26;20473;-85
2024/04/21 03:02:14;;;;;;;3.50;2.13;;;5.60;98.00;;;;;;5380585;26;20569;-85
2024/04/21 03:04:42;;;;;;;3.00;2.27;;;5.60;98.00;;;;;;5379677;26;20564;-85
2024/04/21 03:07:11;;;;;;;3.90;2.37;;;5.50;98.00;;;;;;5381290;26;20679;-85
2024/04/21 03:09:40;;;;;;;3.63;2.30;;;5.60;98.00;;;;;;5380271;26;20901;-85
2024/04/21 03:12:11;;;;;;;2.23;1.93;;;5.60;98.00;;;;;;5380571;26;20461;-85
2024/04/21 03:14:37;;;;;;;6.03;2.40;;;5.70;98.00;;;;;;5379672;26;20457;-85
2024/04/21 03:17:08;;;;;;;5.40;2.20;;;5.70;98.00;;;;;;5379888;26;20513;-85
2024/04/21 03:19:35;;;;;;;5.33;2.60;;;5.80;98.00;;;;;;5380249;26;20598;-85
2024/04/21 03:22:07;;;;;;;4.30;2.63;;;5.80;98.00;;;;;;5379352;26;20480;-85
2024/04/21 03:24:33;;;;;;;6.33;2.30;;;5.50;98.00;;;;;;5379250;26;20457;-85
2024/04/21 03:27:02;;;;;;;2.80;2.10;;;5.40;98.00;;;;;;5379259;26;20529;-85
2024/04/21 03:29:28;;;;;;;6.37;2.57;;;5.20;98.00;;;;;;5379908;26;20459;-85
2024/04/21 03:31:57;;;;;;;7.77;2.80;;;5.20;98.00;;;;;;5379867;26;20581;-85
2024/04/21 03:34:24;;;;;;;5.73;2.60;;;5.10;98.00;;;;;;5378953;26;20478;-85
2024/04/21 03:36:53;;;;;;;4.63;2.90;;;4.90;98.00;;;;;;5380368;26;20446;-85
2024/04/21 03:39:25;;;;;;;5.20;2.70;;;4.90;98.00;;;;;;5379788;26;20515;-85
2024/04/21 03:41:54;;;;;;;4.37;2.80;;;5.00;98.00;;;;;;5379514;26;20478;-85
2024/04/21 03:44:23;;;;;;;4.60;2.93;;;4.90;98.00;;;;;;5378501;26;20578;-84
2024/04/21 03:46:52;;;;;;;5.47;2.83;;;4.80;98.00;;;;;;5380229;26;20461;-84
2024/04/21 03:49:19;;;;;;;3.60;2.67;;;4.70;98.00;;;;;;5379706;26;20458;-84
2024/04/21 03:51:47;;;;;;;4.50;2.70;;;4.50;98.00;;;;;;5379473;26;20527;-84
2024/04/21 03:54:13;;;;;;;3.50;2.57;;;4.40;98.00;;;;;;5378414;26;20608;-84
2024/04/21 03:56:45;;;;;;;2.90;2.30;;;4.50;98.00;;;;;;5379735;26;20478;-85
2024/04/21 03:59:11;;;;;;;4.23;2.57;;;4.40;98.00;;;;;;5379161;26;20938;-85
2024/04/21 04:01:57;;;;;;;3.10;2.03;;;4.40;98.00;;;;;;5378910;26;20525;-85
2024/04/21 04:04:24;;;;;;;3.23;2.30;;;4.40;98.00;;;;;;5378185;26;20530;-85
2024/04/21 04:06:54;;;;;;;3.10;2.30;;;4.40;98.00;;;;;;5378953;26;20464;-85
2024/04/21 04:09:20;;;;;;;3.63;2.23;;;4.40;98.00;;;;;;5379331;26;20459;-85
2024/04/21 04:11:54;;;;;;;3.20;2.43;;;4.40;98.00;;;;;;5379477;26;20527;-84
2024/04/21 04:14:20;;;;;;;3.47;2.63;;;4.40;98.00;;;;;;5378584;26;20474;-85
2024/04/21 04:16:49;;;;;;;3.50;2.40;;;4.50;98.00;;;;;;5379531;26;20513;-85
2024/04/21 04:19:15;;;;;;;4.67;2.73;;;4.60;98.00;;;;;;5379460;26;20515;-84
2024/04/21 04:21:44;;;;;;;4.50;2.93;;;4.60;98.00;;;;;;5379269;26;20855;-84
2024/04/21 04:24:10;;;;;;;4.47;2.90;;;4.60;98.00;;;;;;5378552;26;20467;-85
2024/04/21 04:26:39;;;;;;;7.40;3.00;;;4.60;98.00;;;;;;5379440;26;21048;-84
2024/04/21 04:29:08;;;;;;;5.07;2.97;;;4.70;98.00;;;;;;5379454;26;20518;-85
2024/04/21 04:31:36;;;;;;;4.80;3.10;;;4.70;98.00;;;;;;5378997;26;20539;-85
2024/04/21 04:34:03;;;;;;;6.30;3.37;;;4.70;98.00;;;;;;5378671;26;20504;-84
2024/04/21 04:36:31;;;;;;;6.37;3.23;;;4.70;98.00;;;;;;5378841;26;20546;-85
2024/04/21 04:38:58;;;;;;;5.77;3.40;;;4.70;98.00;;;;;;5380748;26;20981;-84
2024/04/21 04:41:26;;;;;;;4.20;2.97;;;4.70;98.00;;;;;;5379601;26;20515;-85
2024/04/21 04:43:53;;;;;;;6.33;3.43;;;4.80;98.00;;;;;;5378490;26;20496;-84
2024/04/21 04:46:25;;;;;;;4.77;3.30;;;4.70;98.00;;;;;;5378847;26;20510;-85
2024/04/21 04:48:51;;;;;;;4.27;3.00;;;4.70;98.00;;;;;;5379055;26;20504;-85
2024/04/21 04:51:20;;;;;;;6.00;3.00;;;4.70;98.00;;;;;;5379018;26;21316;-85
2024/04/21 04:53:46;;;;;;;3.90;2.90;;;4.80;98.00;;;;;;5378606;26;20496;-84
2024/04/21 04:56:15;;;;;;;7.10;3.30;;;4.70;98.00;;;;;;5379186;26;21050;-84
2024/04/21 04:58:41;;;;;;;6.33;2.73;;;4.80;98.00;;;;;;5379272;26;20466;-85
2024/04/21 05:01:10;;;;;;;5.00;2.60;;;4.90;98.00;;;;;;5378522;26;20894;-84
2024/04/21 05:03:39;;;;;;;4.37;2.60;;;4.90;98.00;;;;;;5377859;26;20567;-85
2024/04/21 05:06:08;;;;;;;6.80;3.50;;;4.90;98.00;;;;;;5378965;26;20472;-85
2024/04/21 05:08:34;;;;;;;4.20;2.60;;;4.80;98.00;;;;;;5378887;26;20471;-84
2024/04/21 05:11:03;;;;;;;3.80;2.57;;;4.80;98.00;;;;;;5378287;26;20547;-84
2024/04/21 05:13:29;;;;;;;3.80;2.50;;;4.80;98.00;;;;;;5377912;26;20443;-84
2024/04/21 05:15:58;;;;;;;6.87;2.90;;;4.70;98.00;;;;;;5378320;26;20464;-84
2024/04/21 05:18:24;;;;;;;3.03;2.40;;;4.70;98.00;;;;;;5378123;26;20570;-85
2024/04/21 05:20:56;;;;;;;3.70;2.30;;;4.60;98.00;;;;;;5378118;26;20475;-85
2024/04/21 05:23:22;;;;;;;5.07;2.40;;;4.70;98.00;;;;;;5377547;26;20840;-84
2024/04/21 05:25:52;;;;;;;4.17;2.57;;;4.80;98.00;;;;;;5377377;26;20460;-84
2024/04/21 05:28:21;;;;;;;3.90;2.50;;;4.80;98.00;;;;;;5378255;26;20512;-84
2024/04/21 05:30:47;;;;;;;3.10;2.33;;;4.70;98.00;;;;;;5379138;26;20517;-85
2024/04/21 05:33:16;;;;;;;4.10;2.30;;;4.70;98.00;;;;;;5378587;26;21021;-85
2024/04/21 05:35:42;;;;;;;3.97;2.43;;;4.60;98.00;;;;;;5378656;26;20462;-85
2024/04/21 05:38:13;;;;;;;4.00;2.60;;;4.80;98.00;;;;;;5378564;26;20472;-85
2024/04/21 05:40:39;;;;;;;5.07;2.50;;;4.80;98.00;;;;;;5378460;26;21059;-85
2024/04/21 05:43:08;;;;;;;4.27;2.57;;;4.60;98.00;;;;;;5379022;26;20459;-85
2024/04/21 05:45:34;;;;;;;2.30;2.07;;;4.70;98.00;;;;;;5377956;26;20515;-84
2024/04/21 05:48:03;;;;;;;5.07;2.33;;;4.80;98.00;;;;;;5378120;26;20568;-84
2024/04/21 05:50:29;;;;;;;3.00;2.03;;;4.90;98.00;;;;;;5379276;26;20478;-84
2024/04/21 05:52:58;;;;;;;2.17;1.60;;;4.90;98.00;;;;;;5379840;26;20513;-85
2024/04/21 05:55:27;;;;;;;2.90;1.77;;;4.80;98.00;;;;;;5377980;26;20501;-85
2024/04/21 05:57:55;;;;;;;2.63;1.60;;;4.80;98.00;;;;;;5378673;26;20526;-85
2024/04/21 06:00:22;;;;;;;6.13;1.80;;;4.80;98.00;;;;;;5378350;26;20620;-86
2024/04/21 06:02:50;;;;;;;2.40;1.70;;;4.70;98.00;;;;;;5378399;26;20845;-86
2024/04/21 06:05:16;;;;;;;2.23;1.60;;;4.80;98.00;;;;;;5377959;26;20471;-86
2024/04/21 06:07:45;;;;;;;5.23;1.73;;;5.00;98.00;;;;;;5378540;26;20497;-85
2024/04/21 06:10:11;;;;;;;3.07;1.90;;;5.10;98.00;;;;;;5378162;26;20605;-86
2024/04/21 06:12:43;;;;;;;2.70;1.60;;;5.10;98.00;;;;;;5378491;26;20479;-85
2024/04/21 06:15:09;;;;;;;1.80;1.63;;;5.10;98.00;;;;;;5377429;26;20500;-85
2024/04/21 06:17:37;;;;;;;1.70;1.60;;;5.30;98.00;;;;;;5378198;26;20576;-86
2024/04/21 06:20:05;;;;;;;2.40;1.80;;;5.30;98.00;;;;;;5378262;26;20515;-85
2024/04/21 06:22:33;;;;;;;4.40;1.80;;;5.40;98.00;;;;;;5378570;26;20832;-85
2024/04/21 06:24:59;;;;;;;3.63;1.93;;;5.50;98.00;;;;;;5377283;26;20513;-85
2024/04/21 06:27:29;;;;;;;3.90;1.80;;;5.60;98.00;;;;;;5378147;26;20534;-85
2024/04/21 06:29:58;;;;;;;2.70;2.00;;;5.60;98.00;;;;;;5377889;26;20444;-85
2024/04/21 06:32:26;;;;;;;3.60;2.20;;;5.30;98.00;;;;;;5378085;26;20535;-85
2024/04/21 06:34:53;;;;;;;6.83;2.40;;;5.40;98.00;;;;;;5377145;26;20456;-85
2024/04/21 06:37:21;;;;;;;5.00;2.63;;;5.40;98.00;;;;;;5377815;26;20587;-85
2024/04/21 06:39:47;;;;;;;2.63;2.17;;;5.50;98.00;;;;;;5377798;26;20459;-85
2024/04/21 06:42:16;;;;;;;3.30;2.27;;;5.50;98.00;;;;;;5378148;26;21088;-85
2024/04/21 06:44:42;;;;;;;3.07;2.30;;;5.50;98.00;;;;;;5377754;26;20474;-85
2024/04/21 06:50:32;;;;;;;3.67;2.00;;;5.80;98.00;;;;;;5376675;26;21002;-85
2024/04/21 06:53:03;;;;;;;3.10;2.00;;;5.70;98.00;;;;;;5377578;26;21119;-85
2024/04/21 06:58:59;;;;;;;4.70;2.57;;;5.90;98.00;;;;;;5210059;26;20508;-85
2024/04/21 07:04:32;;;;;;;4.37;2.37;;;5.80;98.00;;;;;;5382826;26;21047;-85
2024/04/21 07:07:01;;;;;;;4.33;2.80;;;5.90;98.00;;;;;;5380824;26;20454;-85
2024/04/21 07:12:17;;;;;;;3.50;2.30;;;6.10;98.00;;;;;;5380548;26;20591;-85
2024/04/21 07:14:43;;;;;;;4.77;2.57;;;6.30;98.00;;;;;;5379948;26;20456;-85
2024/04/21 07:17:12;;;;;;;6.37;2.47;;;6.20;98.00;;;;;;5380839;26;20511;-86
2024/04/21 07:19:38;;;;;;;2.40;2.03;;;6.10;98.00;;;;;;5380830;26;20597;-86
2024/04/21 07:25:54;;;;;;;3.83;2.20;;;6.10;98.00;;;;;;5368167;26;20463;-85
2024/04/21 07:28:20;;;;;;;5.37;2.90;;;6.20;98.00;;;;;;5381067;26;20809;-85
2024/04/21 07:30:50;;;;;;;4.63;2.63;;;6.20;98.00;;;;;;5380598;26;20516;-86
2024/04/21 07:33:16;;;;;;;3.00;2.47;;;6.00;98.00;;;;;;5380011;26;20508;-86
2024/04/21 07:35:45;;;;;;;4.17;2.63;;;5.90;98.00;;;;;;5380815;26;20799;-85
2024/04/21 07:38:12;;;;;;;3.00;2.40;;;6.00;98.00;;;;;;5380602;26;20503;-85
2024/04/21 07:40:41;;;;;;;9.67;2.57;;;6.00;98.00;;;;;;5380532;26;20527;-85
2024/04/21 07:43:11;;;;;;;6.20;3.23;;;5.90;98.00;;;;;;5380412;26;20518;-85
2024/04/21 07:45:40;;;;;;;4.10;2.47;;;5.90;98.00;;;;;;5379616;26;20459;-85
2024/04/21 07:48:06;;;;;;;6.17;2.97;;;5.90;98.00;;;;;;5380901;26;20457;-85
2024/04/21 07:50:36;;;;;;;4.77;2.50;;;5.90;98.00;;;;;;5380394;26;20537;-85
2024/04/21 07:53:02;;;;;;;6.60;2.60;;;5.80;98.00;;;;;;5380104;26;20514;-85
2024/04/21 07:55:31;;;;;;;5.80;2.47;;;5.90;98.00;;;;;;5379521;26;20459;-86
2024/04/21 07:57:57;;;;;;;4.60;2.57;;;6.00;98.00;;;;;;5380608;26;20452;-86
2024/04/21 08:00:28;;;;;;;8.10;2.43;;;6.20;98.00;;;;;;5379963;26;20884;-85
2024/04/21 08:02:54;;;;;;;3.10;2.30;;;6.20;98.00;;;;;;5380551;26;20459;-86
2024/04/21 08:05:23;;;;;;;5.03;2.77;;;6.30;98.00;;;;;;5379074;26;20461;-85
2024/04/21 08:11:46;;;;;;;4.03;2.50;;;6.30;98.00;;;;;;5382243;26;20507;-85
2024/04/21 08:28:59;;;;;;;3.80;2.50;;;6.60;98.00;;;;;;5382668;26;20545;-85
2024/04/21 08:31:25;;;;;;;3.17;2.23;;;6.60;98.00;;;;;;5380004;26;20471;-85
2024/04/21 08:33:54;;;;;;;4.57;2.20;;;6.70;98.00;;;;;;5379886;26;20505;-85
2024/04/21 08:36:20;;;;;;;5.50;2.40;;;6.70;98.00;;;;;;5380797;26;20457;-85
2024/04/21 08:38:49;;;;;;;4.00;2.50;;;6.70;98.00;;;;;;5380110;26;20519;-85
2024/04/21 08:41:20;;;;;;;5.67;2.30;;;6.70;98.00;;;;;;5379968;26;21007;-85
2024/04/21 08:43:50;;;;;;;6.90;2.90;;;6.60;98.00;;;;;;5379632;26;20448;-85
2024/04/21 08:46:19;;;;;;;4.07;2.53;;;6.40;98.00;;;;;;5380168;26;20452;-85
2024/04/21 08:48:50;;;;;;;4.23;2.20;;;6.40;98.00;;;;;;5379727;26;20466;-85
2024/04/21 08:51:16;;;;;;;3.00;2.10;;;6.50;98.00;;;;;;5379865;26;20466;-85
2024/04/21 08:53:45;;;;;;;3.73;2.10;;;6.40;98.00;;;;;;5378768;26;20467;-85
2024/04/21 08:56:17;;;;;;;6.73;2.20;;;6.50;98.00;;;;;;5379441;26;20978;-85
2024/04/21 08:58:49;;;;;;;3.03;2.30;;;6.60;98.00;;;;;;5379676;26;20460;-85
2024/04/21 09:01:19;;;;;;;5.47;2.40;;;6.70;98.00;;;;;;5378963;26;20523;-85
2024/04/21 09:03:50;;;;;;;8.83;2.33;;;7.00;98.00;;;;;;5378215;26;20603;-85
2024/04/21 09:06:20;;;;;;;4.73;2.57;;;7.10;98.00;;;;;;5379550;26;20570;-85
2024/04/21 09:08:49;;;;;;;4.20;2.40;;;7.30;98.00;;;;;;5379245;26;20464;-85
2024/04/21 09:11:16;;;;;;;5.60;2.23;;;7.30;98.00;;;;;;5378896;26;20477;-85
2024/04/21 09:13:44;;;;;;;3.40;2.10;;;7.30;98.00;;;;;;5378280;26;20460;-85
2024/04/21 09:16:11;;;;;;;4.90;2.50;;;7.10;98.00;;;;;;5379386;26;20818;-85
2024/04/21 09:18:43;;;;;;;4.17;2.20;;;7.00;98.00;;;;;;5379128;26;20986;-85
2024/04/21 09:21:09;;;;;;;5.03;2.50;;;6.90;98.00;;;;;;5379127;26;20466;-84
2024/04/21 09:23:40;;;;;;;2.83;2.20;;;6.80;98.00;;;;;;5376724;26;20496;-85
2024/04/21 09:26:07;;;;;;;2.70;2.00;;;6.70;98.00;;;;;;5379219;26;20449;-85
2024/04/21 09:28:36;;;;;;;12.07;2.97;;;6.70;98.00;;;;;;5379288;26;20573;-85
2024/04/21 09:31:03;;;;;;;6.70;2.50;;;6.70;98.00;;;;;;5378860;26;20861;-85
2024/04/21 09:33:33;;;;;;;6.40;2.43;;;6.60;98.00;;;;;;5378338;26;20803;-85
2024/04/21 09:36:01;;;;;;;4.00;2.70;;;6.70;98.00;;;;;;5378630;26;20498;-85
2024/04/21 09:38:32;;;;;;;4.60;3.00;;;6.80;98.00;;;;;;5379217;26;21080;-85
2024/04/21 09:41:00;;;;;;;10.90;4.80;;;7.00;98.00;;;;;;5379057;26;20463;-85
2024/04/21 09:43:32;;;;;;;6.90;3.33;;;7.10;98.00;;;;;;5377885;26;20470;-85
2024/04/21 09:46:00;;;;;;;5.00;2.60;;;7.40;98.00;;;;;;5378867;26;20460;-85
2024/04/21 09:48:30;;;;;;;5.97;2.60;;;7.60;98.00;;;;;;5378575;26;20902;-85
2024/04/21 09:50:56;;;;;;;7.73;3.90;;;7.70;98.00;;;;;;5378648;26;20521;-86
2024/04/21 09:53:29;;;;;;;9.30;3.33;;;7.80;98.00;;;;;;5378041;26;20570;-85
2024/04/21 09:55:56;;;;;;;5.03;2.70;;;7.80;98.00;;;;;;5378244;26;20457;-85
2024/04/21 09:58:27;;;;;;;6.27;2.60;;;7.90;98.00;;;;;;5378288;26;20513;-85
2024/04/21 10:00:56;;;;;;;8.00;2.93;;;8.00;98.00;;;;;;5378447;26;20466;-85
2024/04/21 10:03:24;;;;;;;9.30;4.00;;;8.10;98.00;;;;;;5377783;26;20525;-85
2024/04/21 10:05:52;;;;;;;12.57;4.10;;;8.10;98.00;;;;;;5378220;26;20462;-85
2024/04/21 10:08:21;;;;;;;8.40;3.90;;;8.20;98.00;;;;;;5378297;26;20453;-85
2024/04/21 10:10:52;;;;;;;6.67;3.47;;;8.30;98.00;;;;;;5378673;26;20470;-85
2024/04/21 10:13:22;;;;;;;12.67;5.53;;;8.40;98.00;;;;;;5377520;26;20946;-85
2024/04/21 10:15:50;;;;;;;6.07;2.87;;;8.50;98.00;;;;;;5378000;26;20462;-85
2024/04/21 10:18:23;;;;;;;4.77;2.43;;;8.70;98.00;;;;;;5378512;26;20464;-85
2024/04/21 10:20:50;;;;;;;6.77;2.60;;;8.90;98.00;;;;;;5378334;26;20528;-85
2024/04/21 10:23:19;;;;;;;4.77;2.17;;;8.90;98.00;;;;;;5377902;26;20490;-86
2024/04/21 10:25:49;;;;;;;8.77;4.10;;;9.00;98.00;;;;;;5378359;26;20467;-85
2024/04/21 10:28:27;;;;;;;6.60;3.20;;;9.00;98.00;;;;;;5378084;26;20508;-86
2024/04/21 10:31:03;;;;;;;4.40;2.50;;;9.00;98.00;;;;;;5377748;26;20458;-85
2024/04/21 10:33:32;;;;;;;4.23;2.00;;;9.00;98.00;;;;;;5377484;26;20459;-85
2024/04/21 10:35:58;;;;;;;9.67;4.60;;;9.00;98.00;;;;;;5380696;26;20829;-85
2024/04/21 10:38:26;;;;;;;8.70;3.90;;;9.10;98.00;;;;;;5381686;26;20463;-86
2024/04/21 10:40:56;;;;;;;3.57;2.60;;;9.20;98.00;;;;;;5382330;26;20482;-85
2024/04/21 10:43:28;;;;;;;5.53;2.63;;;9.30;98.00;;;;;;5381376;26;20452;-86
2024/04/21 10:45:55;;;;;;;10.67;3.27;;;9.40;98.00;;;;;;5381479;26;20521;-85
2024/04/21 10:48:25;;;;;;;15.10;2.90;;;9.50;98.00;;;;;;5381219;26;20458;-86
2024/04/21 10:50:53;;;;;;;3.40;2.40;;;9.60;98.00;;;;;;5381053;26;20475;-85
2024/04/21 10:53:22;;;;;;;2.47;2.00;;;9.80;98.00;;;;;;5380311;26;20514;-85
2024/04/21 10:55:53;;;;;;;3.60;2.20;;;9.80;98.00;;;;;;5381071;26;20557;-85
2024/04/21 10:58:32;;;;;;;10.53;2.00;;;9.60;98.00;;;;;;5380718;26;20512;-85
2024/04/21 11:00:59;;;;;;;6.83;2.30;;;9.30;98.00;;;;;;5380869;26;20591;-85
2024/04/21 11:03:27;;;;;;;7.60;2.50;;;9.20;98.00;;;;;;5380493;26;20462;-85
2024/04/21 11:06:00;;;;;;;5.20;2.20;;;9.30;98.00;;;;;;5381065;26;21181;-85
2024/04/21 11:08:29;;;;;;;1.83;1.80;;;9.50;98.00;;;;;;5380981;26;21017;-85
2024/04/21 11:10:56;;;;;;;3.27;1.70;;;9.80;98.00;;;;;;5381156;26;20469;-85
2024/04/21 11:13:27;;;;;;;5.07;2.10;;;9.80;98.00;;;;;;5380388;26;20556;-85
2024/04/21 11:15:53;;;;;;;5.63;1.90;;;10.00;98.00;;;;;;5380974;26;20828;-85
2024/04/21 11:18:22;;;;;;;6.47;2.43;;;10.00;98.00;;;;;;5381092;26;20465;-85
2024/04/21 11:20:49;;;;;;;3.70;2.07;;;9.90;98.00;;;;;;5381022;26;20463;-85
2024/04/21 11:23:19;;;;;;;6.33;2.10;;;9.70;98.00;;;;;;5380961;26;20872;-86
2024/04/21 11:25:46;;;;;;;6.20;1.80;;;9.40;98.00;;;;;;5380918;26;20464;-86
2024/04/21 11:28:15;;;;;;;4.33;2.03;;;9.10;98.00;;;;;;5381386;26;20552;-85
2024/04/21 11:30:44;;;;;;;6.93;2.17;;;8.90;98.00;;;;;;5380342;26;20480;-85
2024/04/21 11:33:14;;;;;;;3.20;1.97;;;8.90;98.00;;;;;;5380529;26;20474;-86
2024/04/21 11:35:41;;;;;;;11.27;4.87;;;9.00;98.00;;;;;;5379631;26;21001;-85
2024/04/21 11:38:10;;;;;;;6.03;2.50;;;9.10;98.00;;;;;;5380554;26;20532;-86
2024/04/21 11:40:38;;;;;;;3.03;1.83;;;9.30;98.00;;;;;;5380207;26;20855;-85
2024/04/21 11:43:07;;;;;;;5.60;3.23;;;9.50;98.00;;;;;;5380199;26;20508;-85
2024/04/21 11:45:34;;;;;;;3.87;2.57;;;9.70;98.00;;;;;;5379526;26;20837;-85
2024/04/21 11:48:08;;;;;;;6.80;2.73;;;9.90;98.00;;;;;;5379290;26;20544;-85
2024/04/21 11:50:37;;;;;;;3.60;2.37;;;10.20;98.00;;;;;;5380586;26;21039;-85
2024/04/21 11:53:06;;;;;;;3.80;2.00;;;10.60;98.00;;;;;;5380360;26;20448;-85
2024/04/21 11:55:32;;;;;;;4.33;2.20;;;10.90;98.00;;;;;;5379404;26;20520;-86
2024/04/21 11:58:01;;;;;;;2.40;2.03;;;11.30;98.00;;;;;;5380407;26;20450;-86
2024/04/21 12:00:27;;;;;;;3.63;2.20;;;12.00;98.00;;;;;;5379998;26;21113;-85
2024/04/21 12:02:57;;;;;;;3.80;2.20;;;12.70;98.00;;;;;;5380616;26;20472;-86
2024/04/21 12:05:31;;;;;;;4.10;2.10;;;12.70;98.00;;;;;;5379228;26;20584;-85
2024/04/21 12:08:00;;;;;;;4.47;2.27;;;12.50;98.00;;;;;;5380549;26;20454;-85
2024/04/21 12:10:26;;;;;;;2.20;1.80;;;12.10;98.00;;;;;;5380799;26;21113;-85
2024/04/21 12:12:55;;;;;;;2.90;1.87;;;11.90;98.00;;;;;;5380552;26;20463;-85
2024/04/21 12:15:21;;;;;;;5.37;2.70;;;12.40;98.00;;;;;;5379512;26;21051;-86
2024/04/21 12:17:49;;;;;;;20.57;7.93;;;12.50;98.00;;;;;;5380284;26;20516;-86
2024/04/21 12:20:15;;;;;;;14.03;4.70;;;12.10;98.00;;;;;;5379950;26;20475;-85
2024/04/21 12:22:49;;;;;;;4.80;2.90;;;11.50;98.00;;;;;;5380013;26;21041;-85
2024/04/21 12:25:15;;;;;;;4.93;3.20;;;11.20;98.00;;;;;;5380195;26;20471;-86
2024/04/21 12:27:44;;;;;;;2.93;2.10;;;11.00;98.00;;;;;;5380302;26;20865;-86
2024/04/21 12:30:12;;;;;;;5.93;2.50;;;10.90;98.00;;;;;;5379523;26;20773;-86
2024/04/21 12:32:40;;;;;;;2.87;2.00;;;10.70;98.00;;;;;;5379883;26;20516;-85
2024/04/21 12:35:06;;;;;;;4.27;2.20;;;10.40;98.00;;;;;;5378744;26;20504;-85
2024/04/21 12:37:35;;;;;;;7.50;2.20;;;10.40;98.00;;;;;;5379626;26;20513;-86
2024/04/21 12:40:05;;;;;;;2.93;1.90;;;10.30;98.00;;;;;;5379240;26;20485;-85
2024/04/21 12:42:33;;;;;;;4.90;2.70;;;10.20;98.00;;;;;;5379507;26;20505;-85
2024/04/21 12:44:59;;;;;;;2.90;1.83;;;10.10;98.00;;;;;;5379079;26;20452;-86
2024/04/21 12:47:28;;;;;;;4.50;2.00;;;10.00;98.00;;;;;;5379454;26;20515;-86
2024/04/21 12:49:54;;;;;;;3.43;1.80;;;10.00;98.00;;;;;;5379472;26;20464;-85
2024/04/21 12:52:23;;;;;;;5.30;2.30;;;10.00;98.00;;;;;;5379522;26;21335;-85
2024/04/21 12:54:49;;;;;;;2.73;2.00;;;10.00;98.00;;;;;;5378720;26;20461;-86
2024/04/21 12:57:21;;;;;;;4.30;2.53;;;10.10;98.00;;;;;;5379391;26;20494;-85
2024/04/21 12:59:47;;;;;;;4.00;2.03;;;10.10;98.00;;;;;;5379213;26;20562;-86
2024/04/21 13:02:19;;;;;;;9.63;5.30;;;10.20;98.00;;;;;;5379403;26;20506;-86
2024/04/21 13:04:45;;;;;;;2.87;2.00;;;10.20;98.00;;;;;;5378366;26;20500;-85
2024/04/21 13:07:14;;;;;;;3.67;2.20;;;10.10;98.00;;;;;;5379942;26;20512;-86
2024/04/21 13:09:40;;;;;;;2.53;1.97;;;10.00;98.00;;;;;;5379215;26;21009;-86
2024/04/21 13:12:10;;;;;;;4.00;2.60;;;10.00;98.00;;;;;;5379122;26;20586;-85
2024/04/21 13:14:50;;;;;;;10.83;2.20;;;10.10;98.00;;;;;;5378151;26;20461;-86
2024/04/21 13:17:20;;;;;;;4.40;2.00;;;10.10;98.00;;;;;;5378936;26;20465;-86
2024/04/21 13:19:46;;;;;;;3.67;1.83;;;10.10;98.00;;;;;;5379403;26;20498;-86
2024/04/21 13:22:14;;;;;;;4.60;2.40;;;10.20;98.00;;;;;;5379589;26;20560;-86
2024/04/21 13:24:40;;;;;;;3.77;2.10;;;10.20;98.00;;;;;;5378004;26;20449;-85
2024/04/21 13:27:09;;;;;;;2.23;1.67;;;10.20;98.00;;;;;;5379197;26;20532;-86
2024/04/21 13:29:38;;;;;;;2.93;2.00;;;10.20;98.00;;;;;;5379466;26;20515;-85
2024/04/21 13:32:07;;;;;;;4.27;2.43;;;10.70;98.00;;;;;;5378436;26;20623;-85
2024/04/21 13:34:33;;;;;;;3.87;1.70;;;11.20;98.00;;;;;;5377875;26;20472;-86
2024/04/21 13:37:02;;;;;;;2.53;1.70;;;11.80;98.00;;;;;;5379169;26;20802;-86
2024/04/21 13:39:28;;;;;;;2.80;1.80;;;12.20;98.00;;;;;;5379117;26;20465;-86